createdAt,value
2023-04-27T00:01:33.724Z,3.40
2023-04-27T00:06:37.112Z,5.60
2023-04-27T00:11:40.358Z,4.80
2023-04-27T00:16:43.862Z,3.50
2023-04-27T00:21:47.248Z,5.20
2023-04-27T00:26:50.775Z,3.40
2023-04-27T00:31:54.076Z,5.50
2023-04-27T00:36:57.998Z,4.20
2023-04-27T00:42:01.844Z,3.90
2023-04-27T00:47:06.485Z,4.00
2023-04-27T00:57:13.186Z,3.40
2023-04-27T01:02:17.164Z,3.40
2023-04-27T01:07:26.054Z,3.50
2023-04-27T01:12:29.373Z,4.20
2023-04-27T01:17:33.021Z,3.80
2023-04-27T01:22:37.503Z,3.40
2023-04-27T01:27:41.040Z,4.10
2023-04-27T01:32:44.490Z,3.70
2023-04-27T01:37:48.190Z,4.30
2023-04-27T01:42:51.685Z,3.80
2023-04-27T01:47:55.003Z,4.30
2023-04-27T01:52:58.514Z,4.10
2023-04-27T01:58:02.035Z,4.40
2023-04-27T02:03:05.652Z,5.10
2023-04-27T02:08:09.472Z,4.20
2023-04-27T02:13:12.781Z,3.90
2023-04-27T02:18:16.298Z,3.30
2023-04-27T02:23:19.706Z,4.70
2023-04-27T02:28:23.225Z,5.10
2023-04-27T02:33:27.050Z,3.40
2023-04-27T02:38:30.875Z,5.60
2023-04-27T02:43:34.218Z,6.00
2023-04-27T02:48:37.701Z,4.10
2023-04-27T02:53:41.412Z,4.30
2023-04-27T02:58:45.236Z,3.80
2023-04-27T03:03:48.895Z,4.90
2023-04-27T03:08:52.575Z,4.90
2023-04-27T03:13:56.495Z,5.40
2023-04-27T03:19:00.321Z,4.40
2023-04-27T03:24:04.133Z,5.50
2023-04-27T03:29:07.574Z,4.00
2023-04-27T03:34:11.181Z,5.90
2023-04-27T03:39:15.015Z,6.20
2023-04-27T03:44:18.820Z,5.10
2023-04-27T03:49:22.438Z,5.60
2023-04-27T03:54:26.064Z,5.40
2023-04-27T03:59:30.526Z,5.30
2023-04-27T04:04:34.065Z,4.40
2023-04-27T04:09:37.836Z,5.30
2023-04-27T04:14:41.249Z,4.30
2023-04-27T04:19:44.765Z,4.70
2023-04-27T04:24:48.384Z,6.80
2023-04-27T04:29:51.794Z,4.70
2023-04-27T04:34:55.137Z,4.20
2023-04-27T04:39:58.724Z,6.20
2023-04-27T04:45:02.540Z,7.30
2023-04-27T04:50:07.179Z,5.40
2023-04-27T04:55:11.423Z,7.50
2023-04-27T05:05:18.241Z,10.30
2023-04-27T05:10:21.753Z,18.60
2023-04-27T05:15:25.382Z,20.80
2023-04-27T05:20:28.806Z,18.10
2023-04-27T05:25:41.969Z,12.00
2023-04-27T05:30:45.650Z,12.00
2023-04-27T05:35:49.162Z,5.30
2023-04-27T05:40:57.197Z,4.50
2023-04-27T05:46:00.623Z,3.90
2023-04-27T05:51:04.866Z,3.80
2023-04-27T05:56:09.043Z,4.00
2023-04-27T06:01:12.995Z,4.90
2023-04-27T06:06:16.612Z,4.30
2023-04-27T06:11:19.929Z,4.50
2023-04-27T06:16:24.024Z,4.70
2023-04-27T06:21:28.453Z,3.80
2023-04-27T06:31:35.306Z,4.10
2023-04-27T06:36:38.779Z,2.70
2023-04-27T06:41:42.241Z,4.20
2023-04-27T06:46:45.653Z,5.50
2023-04-27T06:51:49.744Z,2.10
2023-04-27T06:56:55.048Z,5.40
2023-04-27T07:01:58.507Z,2.70
2023-04-27T07:07:02.069Z,1.70
2023-04-27T07:12:05.481Z,3.10
2023-04-27T07:17:09.002Z,4.30
2023-04-27T07:22:12.516Z,2.00
2023-04-27T07:27:16.030Z,2.00
2023-04-27T07:32:19.467Z,2.50
2023-04-27T07:37:24.440Z,3.90
2023-04-27T07:42:27.808Z,2.50
2023-04-27T07:47:31.215Z,2.30
2023-04-27T07:52:34.632Z,3.30
2023-04-27T07:57:38.142Z,2.60
2023-04-27T08:02:41.720Z,1.80
2023-04-27T08:07:45.824Z,2.10
2023-04-27T08:12:49.305Z,1.70
2023-04-27T08:17:52.864Z,2.40
2023-04-27T08:22:56.872Z,1.10
2023-04-27T08:28:00.261Z,1.90
2023-04-27T08:33:03.726Z,0.90
2023-04-27T08:38:08.212Z,3.00
2023-04-27T08:43:12.249Z,1.10
2023-04-27T08:48:16.080Z,1.70
2023-04-27T08:53:23.080Z,1.80
2023-04-27T08:58:39.694Z,4.60
2023-04-27T09:03:43.772Z,1.70
2023-04-27T09:13:51.870Z,1.70
2023-04-27T09:18:56.904Z,2.80
2023-04-27T09:24:13.953Z,2.50
2023-04-27T09:29:17.686Z,2.50
2023-04-27T09:34:21.356Z,3.50
2023-04-27T09:39:25.215Z,3.30
2023-04-27T09:44:30.319Z,1.50
2023-04-27T09:49:35.050Z,1.30
2023-04-27T09:54:42.832Z,3.30
2023-04-27T10:00:11.190Z,2.90
2023-04-27T10:05:33.189Z,1.90
2023-04-27T10:10:47.441Z,2.50
2023-04-27T10:15:52.596Z,3.70
2023-04-27T10:20:56.212Z,1.70
2023-04-27T10:26:07.747Z,3.10
2023-04-27T10:31:14.037Z,2.70
2023-04-27T10:36:17.526Z,2.00
2023-04-27T10:41:21.039Z,3.10
2023-04-27T10:46:24.429Z,3.10
2023-04-27T10:51:28.858Z,2.00
2023-04-27T10:56:33.731Z,2.40
2023-04-27T11:01:37.868Z,3.80
2023-04-27T11:06:47.042Z,2.10
2023-04-27T11:11:51.034Z,2.00
2023-04-27T11:22:07.288Z,2.50
2023-04-27T11:27:10.690Z,2.80
2023-04-27T11:32:24.106Z,1.80
2023-04-27T11:37:28.082Z,3.50
2023-04-27T11:42:34.449Z,2.30
2023-04-27T11:47:38.323Z,3.10
2023-04-27T11:52:41.796Z,2.40
2023-04-27T11:57:45.300Z,1.70
2023-04-27T12:02:48.864Z,1.60
2023-04-27T12:07:52.859Z,1.30
2023-04-27T12:12:56.316Z,2.40
2023-04-27T12:18:00.547Z,1.30
2023-04-27T12:23:04.329Z,4.00
2023-04-27T12:28:08.360Z,6.70
2023-04-27T12:33:12.459Z,3.40
2023-04-27T12:38:16.203Z,4.00
2023-04-27T12:43:19.718Z,3.90
2023-04-27T12:48:23.874Z,1.90
2023-04-27T12:53:29.045Z,5.00
2023-04-27T12:58:32.607Z,3.70
2023-04-27T13:03:36.014Z,4.90
2023-04-27T13:08:39.863Z,2.00
2023-04-27T13:13:44.109Z,1.80
2023-04-27T13:23:55.196Z,3.50
2023-04-27T13:28:58.731Z,2.10
2023-04-27T13:34:04.590Z,6.80
2023-04-27T13:39:08.033Z,1.30
2023-04-27T13:44:11.828Z,1.30
2023-04-27T13:49:15.480Z,2.10
2023-04-27T13:54:18.959Z,1.50
2023-04-27T13:59:22.471Z,0.60
2023-04-27T14:04:26.367Z,2.90
2023-04-27T14:09:29.911Z,1.30
2023-04-27T14:14:33.432Z,2.30
2023-04-27T14:19:37.560Z,2.60
2023-04-27T14:24:41.496Z,1.30
2023-04-27T14:29:45.001Z,1.30
2023-04-27T14:34:48.620Z,1.90
2023-04-27T14:39:52.034Z,1.70
2023-04-27T14:44:55.450Z,1.40
2023-04-27T14:49:59.082Z,3.90
2023-04-27T14:55:02.481Z,2.80
2023-04-27T15:00:10.225Z,2.90
2023-04-27T15:05:13.708Z,1.70
2023-04-27T15:10:17.436Z,2.20
2023-04-27T15:15:20.739Z,2.00
2023-04-27T15:20:24.669Z,3.00
2023-04-27T15:30:31.437Z,1.60
2023-04-27T15:35:35.008Z,2.50
2023-04-27T15:40:40.671Z,1.50
2023-04-27T15:45:44.806Z,1.90
2023-04-27T15:50:48.110Z,2.50
2023-04-27T15:55:51.828Z,2.30
2023-04-27T16:00:55.359Z,1.00
2023-04-27T16:11:02.023Z,2.00
2023-04-27T16:16:07.284Z,7.20
2023-04-27T16:21:10.737Z,5.70
2023-04-27T16:26:14.047Z,3.70
2023-04-27T16:31:17.781Z,3.50
2023-04-27T16:36:21.385Z,6.50
2023-04-27T16:41:24.903Z,7.00
2023-04-27T16:46:28.447Z,14.00
2023-04-27T16:51:32.133Z,4.90
2023-04-27T16:56:36.482Z,1.70
2023-04-27T17:01:40.440Z,2.60
2023-04-27T17:06:47.130Z,2.00
2023-04-27T17:11:50.605Z,2.30
2023-04-27T17:16:54.320Z,3.10
2023-04-27T17:21:57.949Z,2.00
2023-04-27T17:27:01.970Z,2.00
2023-04-27T17:32:05.830Z,4.70
2023-04-27T17:37:09.424Z,3.00
2023-04-27T17:42:12.941Z,13.90
2023-04-27T17:52:22.927Z,5.10
2023-04-27T17:57:26.378Z,4.80
2023-04-27T18:02:30.121Z,3.30
2023-04-27T18:07:37.775Z,5.30
2023-04-27T18:12:41.296Z,3.10
2023-04-27T18:19:09.600Z,5.40
2023-04-27T18:24:13.117Z,3.80
2023-04-27T18:29:16.742Z,4.00
2023-04-27T18:34:20.652Z,3.70
2023-04-27T18:39:24.030Z,4.20
2023-04-27T18:44:27.381Z,1.50
2023-04-27T18:49:30.907Z,3.60
2023-04-27T18:54:34.512Z,2.80
2023-04-27T18:59:43.257Z,4.40
2023-04-27T19:04:52.833Z,3.60
2023-04-27T19:10:06.805Z,4.20
2023-04-27T19:15:10.809Z,7.80
2023-04-27T19:20:14.206Z,6.80
2023-04-27T19:25:17.734Z,3.40
2023-04-27T19:30:21.246Z,3.50
2023-04-27T19:35:26.604Z,4.30
2023-04-27T19:40:30.020Z,3.40
2023-04-27T19:45:34.000Z,4.10
2023-04-27T19:50:41.553Z,4.00
2023-04-27T19:55:45.060Z,4.80
2023-04-27T20:00:48.449Z,8.20
2023-04-27T20:05:52.217Z,5.00
2023-04-27T20:10:55.923Z,4.50
2023-04-27T20:15:59.315Z,5.70
2023-04-27T20:21:03.589Z,5.90
2023-04-27T20:26:07.174Z,4.30
2023-04-27T20:31:11.229Z,4.80
2023-04-27T20:36:18.177Z,7.80
2023-04-27T20:41:21.825Z,6.50
2023-04-27T20:46:25.335Z,11.70
2023-04-27T20:51:29.268Z,11.30
2023-04-27T20:56:33.245Z,11.10
2023-04-27T21:01:36.754Z,8.40
2023-04-27T21:06:41.490Z,8.00
2023-04-27T21:11:44.974Z,9.50
2023-04-27T21:16:48.545Z,7.50
2023-04-27T21:21:52.210Z,8.10
2023-04-27T21:26:56.124Z,4.30
2023-04-27T21:31:59.844Z,7.20
2023-04-27T21:37:03.787Z,6.60
2023-04-27T21:42:07.493Z,3.90
2023-04-27T21:47:11.547Z,5.90
2023-04-27T21:52:15.030Z,6.10
2023-04-27T21:57:20.056Z,6.80
2023-04-27T22:02:24.136Z,5.20
2023-04-27T22:07:28.554Z,5.20
2023-04-27T22:12:31.959Z,9.00
2023-04-27T22:17:35.831Z,14.30
2023-04-27T22:22:41.262Z,15.60
2023-04-27T22:32:52.702Z,11.20
2023-04-27T22:37:56.721Z,14.80
2023-04-27T22:43:00.223Z,9.50
2023-04-27T22:48:03.977Z,8.20
2023-04-27T22:53:07.673Z,7.20
2023-04-27T22:58:11.383Z,12.10
2023-04-27T23:03:14.993Z,13.10
2023-04-27T23:08:18.939Z,12.20
2023-04-27T23:13:22.646Z,14.30
2023-04-27T23:18:26.163Z,12.80
2023-04-27T23:23:29.580Z,21.00
2023-04-27T23:28:33.096Z,8.80
2023-04-27T23:33:36.808Z,7.30
2023-04-27T23:38:40.328Z,7.60
2023-04-27T23:43:44.968Z,8.50
2023-04-27T23:48:48.383Z,7.70
2023-04-27T23:53:51.817Z,8.00
2023-04-27T23:58:55.315Z,9.10
